createdAt,value
2022-08-09T00:01:15.374Z,39.51
2022-08-09T00:04:00.712Z,39.79
2022-08-09T00:06:32.084Z,39.28
2022-08-09T00:09:00.805Z,39.43
2022-08-09T00:12:02.634Z,39.51
2022-08-09T00:14:21.979Z,39.83
2022-08-09T00:16:57.573Z,39.85
2022-08-09T00:19:24.661Z,40.10
2022-08-09T00:21:56.748Z,39.74
2022-08-09T00:24:27.410Z,40.16
2022-08-09T00:26:54.966Z,39.99
2022-08-09T00:29:39.846Z,40.05
2022-08-09T00:32:12.645Z,40.33
2022-08-09T00:34:40.031Z,39.99
2022-08-09T00:37:19.097Z,40.39
2022-08-09T00:40:12.060Z,40.24
2022-08-09T00:44:16.376Z,40.16
2022-08-09T00:45:21.141Z,40.46
2022-08-09T00:47:48.387Z,41.01
2022-08-09T00:50:15.559Z,41.22
2022-08-09T00:52:43.072Z,41.11
2022-08-09T00:55:16.674Z,41.62
2022-08-09T00:57:59.333Z,41.57
2022-08-09T01:00:27.976Z,41.66
2022-08-09T01:03:17.903Z,41.43
2022-08-09T01:06:18.171Z,42.04
2022-08-09T01:09:24.703Z,41.72
2022-08-09T01:12:34.134Z,41.84
2022-08-09T01:15:16.639Z,41.80
2022-08-09T01:18:05.192Z,41.88
2022-08-09T01:20:53.468Z,41.81
2022-08-09T01:24:02.043Z,41.98
2022-08-09T01:27:01.086Z,42.06
2022-08-09T01:29:41.135Z,42.04
2022-08-09T01:32:39.193Z,42.00
2022-08-09T01:35:37.518Z,42.17
2022-08-09T01:38:15.175Z,42.13
2022-08-09T01:41:15.148Z,42.16
2022-08-09T01:43:50.355Z,42.56
2022-08-09T01:46:40.713Z,42.21
2022-08-09T01:49:18.650Z,42.50
2022-08-09T01:52:07.117Z,42.65
2022-08-09T01:54:43.941Z,42.89
2022-08-09T01:57:21.793Z,42.88
2022-08-09T01:59:52.603Z,42.49
2022-08-09T02:02:31.125Z,42.69
2022-08-09T02:05:15.761Z,42.56
2022-08-09T02:08:41.014Z,42.88
2022-08-09T02:10:51.202Z,42.50
2022-08-09T02:13:26.166Z,43.12
2022-08-09T02:16:08.053Z,42.85
2022-08-09T02:18:38.508Z,43.12
2022-08-09T02:21:17.051Z,43.05
2022-08-09T02:23:54.428Z,42.73
2022-08-09T02:26:25.117Z,42.97
2022-08-09T02:29:00.495Z,43.36
2022-08-09T02:31:39.572Z,43.22
2022-08-09T02:34:40.779Z,43.46
2022-08-09T02:37:11.984Z,43.28
2022-08-09T02:39:49.888Z,43.52
2022-08-09T02:42:35.905Z,43.26
2022-08-09T02:45:11.108Z,43.51
2022-08-09T02:47:57.744Z,43.14
2022-08-09T02:50:43.960Z,43.32
2022-08-09T02:53:28.070Z,43.31
2022-08-09T02:55:59.483Z,43.48
2022-08-09T02:58:35.807Z,43.83
2022-08-09T03:01:08.220Z,43.82
2022-08-09T03:04:17.415Z,43.75
2022-08-09T03:06:29.368Z,43.86
2022-08-09T03:08:59.158Z,43.49
2022-08-09T03:11:29.894Z,44.56
2022-08-09T03:14:17.222Z,44.69
2022-08-09T03:16:48.030Z,44.52
2022-08-09T03:19:58.854Z,44.71
2022-08-09T03:22:11.827Z,45.07
2022-08-09T03:24:52.436Z,44.82
2022-08-09T03:27:27.596Z,45.07
2022-08-09T03:30:05.392Z,45.08
2022-08-09T03:32:36.963Z,45.10
2022-08-09T03:35:15.100Z,45.33
2022-08-09T03:37:56.239Z,45.54
2022-08-09T03:40:25.346Z,45.67
2022-08-09T03:42:58.161Z,45.90
2022-08-09T03:46:04.787Z,45.89
2022-08-09T03:48:12.396Z,46.41
2022-08-09T03:50:47.597Z,46.64
2022-08-09T03:53:17.391Z,46.86
2022-08-09T03:55:48.814Z,47.18
2022-08-09T03:58:21.232Z,47.65
2022-08-09T04:00:50.116Z,48.36
2022-08-09T04:03:24.973Z,47.62
2022-08-09T04:06:06.861Z,47.38
2022-08-09T04:08:34.673Z,47.24
2022-08-09T04:11:02.038Z,47.03
2022-08-09T04:14:37.670Z,47.24
2022-08-09T04:16:20.217Z,47.29
2022-08-09T04:18:50.915Z,47.22
2022-08-09T04:21:19.520Z,47.27
2022-08-09T04:23:53.891Z,47.18
2022-08-09T04:26:24.783Z,47.36
2022-08-09T04:29:07.847Z,47.31
2022-08-09T04:31:47.131Z,47.35
2022-08-09T04:34:19.100Z,47.97
2022-08-09T04:36:58.135Z,47.49
2022-08-09T04:39:25.536Z,47.61
2022-08-09T04:41:59.765Z,47.68
2022-08-09T04:44:30.069Z,47.58
2022-08-09T04:47:04.514Z,47.72
2022-08-09T04:49:52.709Z,47.65
2022-08-09T04:52:28.406Z,48.00
2022-08-09T04:54:59.713Z,47.94
2022-08-09T04:57:58.367Z,47.86
2022-08-09T05:00:16.880Z,47.90
2022-08-09T05:02:44.382Z,47.90
2022-08-09T05:05:31.737Z,47.84
2022-08-09T05:08:06.181Z,47.52
2022-08-09T05:10:34.417Z,47.27
2022-08-09T05:13:04.221Z,47.45
2022-08-09T05:15:39.183Z,47.56
2022-08-09T05:18:38.519Z,47.12
2022-08-09T05:20:57.941Z,47.34
2022-08-09T05:23:51.121Z,47.08
2022-08-09T05:26:16.128Z,47.30
2022-08-09T05:28:59.522Z,46.95
2022-08-09T05:31:44.443Z,46.95
2022-08-09T05:34:17.558Z,46.90
2022-08-09T05:36:46.873Z,46.62
2022-08-09T05:39:28.903Z,46.55
2022-08-09T05:42:01.756Z,46.57
2022-08-09T05:44:34.835Z,46.89
2022-08-09T05:47:04.921Z,47.09
2022-08-09T05:50:16.841Z,47.51
2022-08-09T05:52:21.986Z,47.11
2022-08-09T05:54:52.314Z,47.79
2022-08-09T05:57:19.581Z,48.01
2022-08-09T05:59:52.438Z,47.98
2022-08-09T06:02:20.147Z,47.54
2022-08-09T06:04:49.016Z,47.01
2022-08-09T06:07:21.339Z,47.29
2022-08-09T06:10:01.406Z,47.26
2022-08-09T06:12:30.285Z,46.53
2022-08-09T06:15:01.056Z,46.47
2022-08-09T06:17:40.425Z,46.61
2022-08-09T06:20:09.305Z,46.79
2022-08-09T06:22:37.135Z,45.79
2022-08-09T06:25:08.741Z,46.09
2022-08-09T06:27:42.329Z,45.68
2022-08-09T06:30:14.275Z,45.69
2022-08-09T06:32:59.134Z,45.85
2022-08-09T06:35:55.899Z,45.21
2022-08-09T06:38:19.640Z,45.03
2022-08-09T06:40:59.225Z,45.13
2022-08-09T06:43:27.357Z,45.12
2022-08-09T06:46:05.989Z,45.35
2022-08-09T06:48:42.659Z,45.09
2022-08-09T06:51:14.772Z,44.97
2022-08-09T06:53:42.373Z,45.07
2022-08-09T06:56:10.841Z,44.47
2022-08-09T07:00:48.935Z,43.73
2022-08-09T07:01:27.423Z,43.81
2022-08-09T07:04:03.728Z,43.90
2022-08-09T07:06:31.304Z,43.55
2022-08-09T07:08:58.932Z,43.46
2022-08-09T07:11:27.404Z,43.08
2022-08-09T07:14:26.404Z,42.78
2022-08-09T07:16:58.049Z,42.71
2022-08-09T07:19:25.643Z,42.55
2022-08-09T07:21:57.913Z,42.43
2022-08-09T07:24:32.861Z,42.88
2022-08-09T07:27:33.176Z,42.49
2022-08-09T07:30:03.112Z,42.69
2022-08-09T07:32:33.415Z,42.27
2022-08-09T07:35:10.613Z,41.92
2022-08-09T07:37:44.447Z,41.86
2022-08-09T07:40:20.051Z,41.54
2022-08-09T07:42:58.596Z,41.47
2022-08-09T07:45:40.257Z,41.58
2022-08-09T07:48:25.544Z,41.15
2022-08-09T07:51:10.262Z,40.53
2022-08-09T07:54:05.263Z,40.92
2022-08-09T07:56:36.865Z,40.39
2022-08-09T07:59:16.085Z,40.52
2022-08-09T08:01:56.046Z,40.69
2022-08-09T08:04:31.184Z,40.32
2022-08-09T08:07:09.588Z,40.49
2022-08-09T08:09:53.414Z,40.25
2022-08-09T08:12:27.814Z,40.08
2022-08-09T08:15:05.588Z,40.30
2022-08-09T08:17:52.902Z,39.81
2022-08-09T08:20:29.336Z,39.35
2022-08-09T08:23:01.783Z,38.97
2022-08-09T08:25:43.955Z,39.17
2022-08-09T08:28:15.075Z,38.49
2022-08-09T08:30:44.797Z,38.50
2022-08-09T08:33:23.883Z,38.40
2022-08-09T08:36:00.292Z,37.26
2022-08-09T08:38:31.399Z,37.71
2022-08-09T08:40:59.414Z,37.75
2022-08-09T08:43:28.157Z,37.67
2022-08-09T08:46:32.966Z,37.72
2022-08-09T08:48:53.536Z,37.44
2022-08-09T08:51:24.809Z,37.65
2022-08-09T08:54:03.069Z,37.04
2022-08-09T08:56:35.676Z,36.45
2022-08-09T08:59:19.649Z,36.49
2022-08-09T09:01:52.854Z,36.17
2022-08-09T09:04:31.151Z,36.67
2022-08-09T09:07:03.410Z,36.44
2022-08-09T09:09:58.668Z,36.81
2022-08-09T09:12:26.744Z,36.80
2022-08-09T09:14:59.578Z,36.28
2022-08-09T09:17:48.468Z,36.50
2022-08-09T09:20:15.782Z,36.61
2022-08-09T09:23:01.974Z,36.68
2022-08-09T09:26:00.985Z,35.86
2022-08-09T09:29:02.311Z,35.89
2022-08-09T09:32:06.475Z,35.71
2022-08-09T09:34:18.581Z,35.82
2022-08-09T09:36:53.782Z,35.49
2022-08-09T09:39:54.510Z,35.16
2022-08-09T09:42:27.911Z,35.18
2022-08-09T09:45:08.175Z,35.22
2022-08-09T09:47:47.662Z,34.78
2022-08-09T09:50:50.909Z,34.87
2022-08-09T09:53:43.720Z,34.88
2022-08-09T09:56:20.002Z,34.78
2022-08-09T09:58:57.791Z,34.98
2022-08-09T10:01:37.257Z,35.03
2022-08-09T10:04:22.862Z,34.94
2022-08-09T10:06:58.121Z,34.86
2022-08-09T10:09:25.849Z,34.77
2022-08-09T10:12:14.289Z,34.49
2022-08-09T10:14:48.505Z,34.90
2022-08-09T10:17:54.984Z,34.93
2022-08-09T10:20:14.883Z,34.77
2022-08-09T10:22:43.037Z,35.15
2022-08-09T10:25:14.695Z,35.01
2022-08-09T10:27:57.149Z,35.24
2022-08-09T10:33:29.766Z,34.56
2022-08-09T10:36:11.538Z,35.19
2022-08-09T10:38:56.122Z,35.07
2022-08-09T10:41:25.047Z,35.11
2022-08-09T10:43:59.634Z,34.72
2022-08-09T10:46:55.164Z,34.45
2022-08-09T10:50:06.681Z,34.51
2022-08-09T10:53:04.930Z,34.34
2022-08-09T10:55:55.668Z,34.59
2022-08-09T10:58:34.740Z,34.35
2022-08-09T11:03:02.559Z,33.74
2022-08-09T11:04:28.341Z,33.77
2022-08-09T11:07:00.030Z,33.35
2022-08-09T11:09:47.883Z,33.24
2022-08-09T11:12:26.649Z,32.97
2022-08-09T11:15:15.424Z,32.42
2022-08-09T11:17:53.260Z,32.15
2022-08-09T11:20:47.444Z,32.12
2022-08-09T11:23:17.053Z,32.56
2022-08-09T11:25:51.169Z,32.65
2022-08-09T11:28:56.154Z,32.34
2022-08-09T11:31:49.617Z,31.26
2022-08-09T11:34:28.183Z,30.75
2022-08-09T11:36:58.822Z,30.37
2022-08-09T11:39:33.553Z,30.83
2022-08-09T11:42:09.141Z,30.84
2022-08-09T11:44:45.813Z,29.97
2022-08-09T11:47:14.402Z,30.23
2022-08-09T11:50:56.053Z,30.17
2022-08-09T11:53:28.237Z,29.86
2022-08-09T11:55:52.667Z,30.18
2022-08-09T11:58:30.350Z,30.47
2022-08-09T12:01:08.325Z,30.12
2022-08-09T12:03:55.257Z,29.57
2022-08-09T12:06:32.705Z,29.96
2022-08-09T12:09:19.351Z,29.13
2022-08-09T12:12:05.994Z,28.64
2022-08-09T12:15:07.302Z,28.65
2022-08-09T12:17:42.330Z,28.31
2022-08-09T12:20:25.444Z,29.33
2022-08-09T12:23:04.709Z,29.21
2022-08-09T12:25:37.349Z,29.15
2022-08-09T12:29:13.271Z,28.77
2022-08-09T12:31:58.029Z,28.88
2022-08-09T12:34:14.492Z,29.33
2022-08-09T12:36:53.087Z,29.14
2022-08-09T12:39:26.694Z,28.55
2022-08-09T12:41:54.891Z,29.09
2022-08-09T12:44:24.344Z,29.57
2022-08-09T12:46:52.143Z,29.28
2022-08-09T12:49:21.698Z,29.67
2022-08-09T12:52:00.986Z,29.02
2022-08-09T12:54:29.227Z,28.52
2022-08-09T12:56:59.159Z,27.03
2022-08-09T12:59:57.958Z,26.27
2022-08-09T13:02:19.951Z,26.11
2022-08-09T13:05:02.328Z,25.29
2022-08-09T13:07:51.102Z,25.57
2022-08-09T13:10:17.565Z,25.77
2022-08-09T13:13:08.736Z,25.43
2022-08-09T13:15:36.243Z,25.91
2022-08-09T13:18:09.785Z,25.96
2022-08-09T13:21:04.101Z,26.96
2022-08-09T13:24:17.050Z,26.39
2022-08-09T13:26:42.589Z,25.81
2022-08-09T13:29:28.587Z,25.58
2022-08-09T13:32:19.577Z,25.48
2022-08-09T13:34:56.206Z,25.68
2022-08-09T13:37:51.090Z,25.75
2022-08-09T13:41:51.582Z,25.08
2022-08-09T13:42:59.740Z,25.44
2022-08-09T13:45:32.136Z,25.53
2022-08-09T13:48:18.111Z,25.49
2022-08-09T13:50:46.072Z,25.88
2022-08-09T13:53:16.786Z,25.46
2022-08-09T13:55:44.875Z,25.89
2022-08-09T13:58:15.409Z,25.79
2022-08-09T14:00:50.369Z,26.09
2022-08-09T14:04:03.390Z,25.64
2022-08-09T14:06:19.419Z,25.56
2022-08-09T14:08:54.305Z,25.56
2022-08-09T14:11:23.145Z,25.21
2022-08-09T14:14:23.421Z,25.20
2022-08-09T14:16:37.761Z,25.40
2022-08-09T14:19:07.593Z,24.88
2022-08-09T14:21:34.551Z,25.11
2022-08-09T14:24:10.187Z,25.32
2022-08-09T14:26:38.024Z,24.59
2022-08-09T14:29:25.439Z,24.33
2022-08-09T14:31:56.410Z,24.20
2022-08-09T14:34:31.761Z,24.66
2022-08-09T14:37:08.103Z,24.42
2022-08-09T14:39:46.776Z,24.40
2022-08-09T14:42:40.577Z,23.89
2022-08-09T14:46:39.706Z,23.60
2022-08-09T14:48:00.379Z,23.27
2022-08-09T14:50:35.291Z,22.56
2022-08-09T14:53:11.475Z,22.43
2022-08-09T14:55:48.108Z,22.80
2022-08-09T14:58:18.422Z,22.67
2022-08-09T15:00:48.163Z,22.77
2022-08-09T15:03:20.421Z,23.23
2022-08-09T15:05:49.570Z,22.86
2022-08-09T15:08:20.204Z,23.46
2022-08-09T15:11:00.380Z,23.01
2022-08-09T15:13:29.943Z,23.33
2022-08-09T15:16:17.146Z,23.05
2022-08-09T15:18:44.462Z,23.80
2022-08-09T15:21:55.327Z,23.21
2022-08-09T15:24:11.451Z,23.78
2022-08-09T15:26:46.073Z,23.79
2022-08-09T15:30:55.646Z,23.79
2022-08-09T15:32:01.583Z,23.53
2022-08-09T15:34:34.324Z,23.98
2022-08-09T15:37:23.625Z,24.10
2022-08-09T15:39:53.874Z,24.31
2022-08-09T15:42:22.051Z,24.52
2022-08-09T15:44:50.212Z,24.31
2022-08-09T15:47:22.343Z,24.38
2022-08-09T15:50:03.641Z,24.30
2022-08-09T15:52:37.118Z,24.45
2022-08-09T15:55:07.820Z,24.93
2022-08-09T15:57:44.477Z,24.91
2022-08-09T16:00:25.193Z,24.92
2022-08-09T16:02:56.810Z,25.27
2022-08-09T16:05:47.096Z,25.54
2022-08-09T16:08:31.018Z,24.98
2022-08-09T16:11:01.430Z,25.29
2022-08-09T16:14:05.239Z,24.88
2022-08-09T16:16:18.804Z,25.26
2022-08-09T16:18:47.559Z,24.93
2022-08-09T16:21:17.558Z,25.25
2022-08-09T16:24:02.176Z,25.40
2022-08-09T16:26:35.683Z,25.53
2022-08-09T16:29:11.191Z,25.43
2022-08-09T16:32:18.667Z,25.05
2022-08-09T16:34:56.060Z,24.67
2022-08-09T16:37:50.551Z,25.29
2022-08-09T16:40:10.431Z,24.95
2022-08-09T16:42:39.378Z,24.80
2022-08-09T16:45:17.398Z,25.24
2022-08-09T16:48:41.445Z,25.27
2022-08-09T16:50:38.160Z,25.02
2022-08-09T16:53:06.486Z,24.64
2022-08-09T16:55:58.592Z,24.84
2022-08-09T16:58:23.242Z,24.80
2022-08-09T17:00:51.032Z,24.31
2022-08-09T17:03:22.666Z,24.26
2022-08-09T17:06:08.549Z,24.63
2022-08-09T17:09:04.883Z,24.81
2022-08-09T17:11:39.985Z,24.78
2022-08-09T17:14:26.017Z,24.93
2022-08-09T17:17:02.278Z,24.55
2022-08-09T17:19:47.348Z,24.90
2022-08-09T17:22:24.163Z,25.59
2022-08-09T17:25:02.762Z,25.74
2022-08-09T17:27:30.350Z,26.15
2022-08-09T17:29:58.258Z,26.12
2022-08-09T17:32:34.797Z,25.52
2022-08-09T17:35:12.251Z,26.36
2022-08-09T17:38:02.151Z,26.26
2022-08-09T17:40:30.377Z,26.86
2022-08-09T17:43:11.141Z,26.48
2022-08-09T17:46:03.040Z,27.26
2022-08-09T17:48:33.288Z,27.50
2022-08-09T17:51:09.553Z,27.48
2022-08-09T17:53:48.112Z,27.40
2022-08-09T17:56:27.757Z,27.72
2022-08-09T17:59:02.948Z,28.10
2022-08-09T18:02:03.295Z,28.25
2022-08-09T18:04:20.200Z,28.13
2022-08-09T18:06:49.778Z,28.57
2022-08-09T18:09:24.309Z,28.43
2022-08-09T18:12:05.258Z,28.46
2022-08-09T18:14:49.767Z,28.63
2022-08-09T18:17:27.161Z,28.75
2022-08-09T18:20:57.012Z,29.09
2022-08-09T18:22:54.443Z,29.02
2022-08-09T18:25:21.499Z,29.48
2022-08-09T18:28:21.675Z,29.21
2022-08-09T18:30:59.976Z,29.48
2022-08-09T18:33:28.389Z,29.55
2022-08-09T18:35:58.971Z,29.67
2022-08-09T18:38:28.061Z,30.15
2022-08-09T18:40:57.846Z,30.08
2022-08-09T18:43:25.028Z,29.76
2022-08-09T18:46:49.152Z,30.38
2022-08-09T18:48:42.373Z,30.55
2022-08-09T18:51:10.154Z,30.74
2022-08-09T18:54:01.905Z,30.56
2022-08-09T18:56:27.929Z,31.03
2022-08-09T18:58:57.128Z,31.40
2022-08-09T19:01:25.653Z,31.29
2022-08-09T19:04:06.390Z,31.81
2022-08-09T19:06:38.664Z,31.58
2022-08-09T19:09:07.955Z,31.84
2022-08-09T19:11:41.767Z,32.31
2022-08-09T19:14:08.897Z,32.21
2022-08-09T19:16:37.947Z,32.20
2022-08-09T19:19:21.311Z,32.58
2022-08-09T19:22:06.557Z,32.39
2022-08-09T19:25:11.443Z,32.52
2022-08-09T19:27:28.533Z,32.50
2022-08-09T19:30:24.670Z,32.64
2022-08-09T19:32:44.279Z,32.81
2022-08-09T19:35:11.665Z,32.70
2022-08-09T19:37:52.762Z,32.79
2022-08-09T19:40:24.072Z,33.29
2022-08-09T19:43:05.286Z,33.32
2022-08-09T19:45:40.455Z,33.41
2022-08-09T19:48:10.942Z,33.65
2022-08-09T19:50:51.202Z,33.46
2022-08-09T19:53:21.647Z,33.79
2022-08-09T19:56:02.765Z,33.86
2022-08-09T19:58:34.635Z,34.08
2022-08-09T20:01:02.338Z,34.00
2022-08-09T20:04:09.596Z,34.27
2022-08-09T20:06:23.703Z,34.15
2022-08-09T20:08:59.401Z,34.14
2022-08-09T20:11:43.381Z,34.42
2022-08-09T20:14:16.552Z,34.54
2022-08-09T20:16:53.742Z,34.58
2022-08-09T20:19:48.901Z,35.03
2022-08-09T20:22:14.161Z,34.52
2022-08-09T20:24:43.092Z,35.05
2022-08-09T20:27:21.738Z,34.81
2022-08-09T20:29:49.573Z,34.88
2022-08-09T20:32:30.442Z,34.98
2022-08-09T20:35:01.772Z,35.57
2022-08-09T20:38:18.782Z,35.48
2022-08-09T20:40:26.225Z,35.40
2022-08-09T20:42:59.364Z,35.67
2022-08-09T20:45:59.497Z,36.16
2022-08-09T20:48:21.213Z,36.15
2022-08-09T20:50:55.713Z,35.93
2022-08-09T20:53:37.318Z,36.22
2022-08-09T20:56:08.814Z,36.47
2022-08-09T20:58:36.584Z,36.07
2022-08-09T21:01:32.303Z,36.83
2022-08-09T21:05:48.407Z,36.48
2022-08-09T21:06:44.462Z,36.82
2022-08-09T21:09:14.176Z,36.89
2022-08-09T21:14:31.666Z,36.79
2022-08-09T21:17:00.342Z,37.29
2022-08-09T21:20:17.399Z,37.24
2022-08-09T21:22:23.118Z,36.93
2022-08-09T21:25:21.240Z,37.39
2022-08-09T21:27:50.883Z,37.38
2022-08-09T21:30:29.263Z,37.27
2022-08-09T21:32:57.229Z,37.83
2022-08-09T21:35:24.699Z,38.06
2022-08-09T21:37:59.697Z,38.26
2022-08-09T21:40:30.629Z,38.14
2022-08-09T21:43:00.759Z,38.06
2022-08-09T21:45:28.204Z,38.39
2022-08-09T21:47:55.751Z,38.03
2022-08-09T21:50:33.889Z,38.48
2022-08-09T21:53:19.974Z,38.46
2022-08-09T21:55:55.424Z,38.34
2022-08-09T21:58:30.954Z,38.60
2022-08-09T22:00:58.483Z,39.04
2022-08-09T22:03:26.323Z,38.77
2022-08-09T22:05:57.966Z,38.80
2022-08-09T22:08:26.252Z,39.17
2022-08-09T22:11:01.013Z,39.47
2022-08-09T22:13:43.884Z,39.05
2022-08-09T22:16:12.004Z,39.23
2022-08-09T22:18:53.198Z,39.49
2022-08-09T22:21:45.286Z,39.79
2022-08-09T22:24:17.103Z,39.75
2022-08-09T22:26:51.069Z,39.75
2022-08-09T22:29:19.749Z,39.62
2022-08-09T22:31:56.654Z,40.09
2022-08-09T22:34:26.687Z,39.61
2022-08-09T22:36:58.778Z,39.96
2022-08-09T22:39:56.160Z,40.25
2022-08-09T22:42:21.276Z,40.27
2022-08-09T22:48:04.506Z,40.62
2022-08-09T22:48:14.811Z,40.37
2022-08-09T22:50:29.483Z,40.37
2022-08-09T22:52:58.322Z,40.82
2022-08-09T22:55:39.605Z,41.08
2022-08-09T22:58:20.154Z,40.98
2022-08-09T23:01:05.662Z,41.22
2022-08-09T23:04:04.160Z,41.00
2022-08-09T23:06:35.248Z,40.77
2022-08-09T23:09:06.962Z,41.21
2022-08-09T23:11:34.561Z,41.34
2022-08-09T23:14:03.830Z,41.51
2022-08-09T23:16:31.776Z,41.78
2022-08-09T23:18:58.931Z,41.54
2022-08-09T23:21:31.300Z,41.55
2022-08-09T23:24:06.490Z,41.82
2022-08-09T23:26:39.521Z,42.05
2022-08-09T23:29:11.306Z,42.12
2022-08-09T23:31:38.449Z,41.95
2022-08-09T23:34:05.712Z,41.81
2022-08-09T23:36:34.876Z,42.00
2022-08-09T23:39:04.410Z,42.41
2022-08-09T23:41:31.605Z,42.22
2022-08-09T23:44:01.045Z,42.18
2022-08-09T23:46:30.269Z,42.41
2022-08-09T23:48:59.147Z,42.73
2022-08-09T23:51:27.034Z,42.38
2022-08-09T23:54:03.278Z,42.80
2022-08-09T23:56:52.508Z,43.12
2022-08-09T23:59:20.464Z,42.88
